Time,TemperatureF,DewpointF,PressureIn,WindDirection,WindDirectionDegrees,WindSpeedMPH,WindSpeedGustMPH,Humidity,HourlyPrecipIn,Conditions,Clouds,dailyrainin,SoftwareType,DateUTC
2013-01-13 00:03:00,35.0,-99.9,29.93,North,-999,-999.0,-999.0,-999,-99.99,,,-99.99,,2013-01-13 05:03:00,
2013-01-13 00:12:00,35.0,-99.9,29.92,North,-999,-999.0,-999.0,-999,-99.99,,,-99.99,,2013-01-13 05:12:00,
2013-01-13 00:23:00,35.0,-99.9,29.92,WSW,256,6.0,10.0,-999,-99.99,,,-99.99,,2013-01-13 05:23:00,
2013-01-13 00:33:00,35.0,-99.9,29.91,North,-999,-999.0,-999.0,-999,-99.99,,,-99.99,,2013-01-13 05:33:00,
2013-01-13 00:42:00,35.0,-99.9,29.91,North,-999,-999.0,-999.0,-999,-99.99,,,-99.99,,2013-01-13 05:42:00,
2013-01-13 00:53:00,34.0,-99.9,29.91,West,259,10.0,13.0,-999,-99.99,,,-99.99,,2013-01-13 05:53:00,
2013-01-13 01:03:00,34.0,-99.9,29.91,North,-999,-999.0,-999.0,-999,-99.99,,,-99.99,,2013-01-13 06:03:00,
2013-01-13 01:12:00,34.0,-99.9,29.91,North,-999,-999.0,-999.0,-999,-99.99,,,-99.99,,2013-01-13 06:12:00,
2013-01-13 01:22:00,34.0,-99.9,29.91,WSW,253,8.0,11.0,-999,-99.99,,,-99.99,,2013-01-13 06:22:00,
2013-01-13 01:33:00,34.0,-99.9,29.91,North,-999,-999.0,-999.0,-999,-99.99,,,-99.99,,2013-01-13 06:33:00,
2013-01-13 01:43:00,34.0,-99.9,29.92,North,-999,-999.0,-999.0,-999,-99.99,,,-99.99,,2013-01-13 06:43:00,
2013-01-13 01:53:00,34.0,-99.9,29.92,North,-999,-999.0,-999.0,-999,-99.99,,,-99.99,,2013-01-13 06:53:00,
2013-01-13 02:02:00,34.0,-99.9,29.92,North,-999,-999.0,-999.0,-999,-99.99,,,-99.99,,2013-01-13 07:02:00,
2013-01-13 02:12:00,34.0,-99.9,29.92,North,-999,-999.0,-999.0,-999,-99.99,,,-99.99,,2013-01-13 07:12:00,
2013-01-13 02:22:00,34.0,-99.9,29.91,WNW,293,6.0,10.0,-999,-99.99,,,-99.99,,2013-01-13 07:22:00,
2013-01-13 02:33:00,34.0,-99.9,29.91,North,-999,-999.0,-999.0,-999,-99.99,,,-99.99,,2013-01-13 07:33:00,
2013-01-13 02:42:00,34.0,-99.9,29.90,North,-999,-999.0,-999.0,-999,-99.99,,,-99.99,,2013-01-13 07:42:00,
2013-01-13 02:53:00,33.0,-99.9,29.90,NW,310,9.0,14.0,-999,-99.99,,,-99.99,,2013-01-13 07:53:00,
2013-01-13 03:02:00,33.0,-99.9,29.89,North,-999,-999.0,-999.0,-999,-99.99,,,-99.99,,2013-01-13 08:02:00,
2013-01-13 03:12:00,33.0,-99.9,29.89,North,-999,-999.0,-999.0,-999,-99.99,,,-99.99,,2013-01-13 08:12:00,
2013-01-13 03:22:00,33.0,-99.9,29.89,North,-999,-999.0,-999.0,-999,-99.99,,,-99.99,,2013-01-13 08:22:00,
2013-01-13 03:33:00,33.0,-99.9,29.88,North,-999,-999.0,-999.0,-999,-99.99,,,-99.99,,2013-01-13 08:33:00,
2013-01-13 03:42:00,33.0,-99.9,29.88,North,-999,-999.0,-999.0,-999,-99.99,,,-99.99,,2013-01-13 08:42:00,
2013-01-13 03:53:00,33.0,-99.9,29.88,WNW,295,5.0,7.0,-999,-99.99,,,-99.99,,2013-01-13 08:53:00,
2013-01-13 04:02:00,33.0,-99.9,29.87,North,-999,-999.0,-999.0,-999,-99.99,,,-99.99,,2013-01-13 09:02:00,
2013-01-13 04:12:00,33.0,-99.9,29.87,North,-999,-999.0,-999.0,-999,-99.99,,,-99.99,,2013-01-13 09:12:00,
2013-01-13 04:22:00,33.0,-99.9,29.88,WNW,288,7.0,8.0,-999,-99.99,,,-99.99,,2013-01-13 09:22:00,
2013-01-13 04:32:00,32.0,-99.9,29.87,North,-999,-999.0,-999.0,-999,-99.99,,,-99.99,,2013-01-13 09:32:00,
2013-01-13 04:43:00,32.0,-99.9,29.88,North,-999,-999.0,-999.0,-999,-99.99,,,-99.99,,2013-01-13 09:43:00,
2013-01-13 04:53:00,32.0,-99.9,29.87,North,-999,-999.0,-999.0,-999,-99.99,,,-99.99,,2013-01-13 09:53:00,
2013-01-13 05:22:00,32.0,-99.9,29.87,WNW,297,5.0,8.0,-999,-99.99,,,-99.99,,2013-01-13 10:22:00,
2013-01-13 05:53:00,32.0,-99.9,29.85,NW,309,6.0,9.0,-999,-99.99,,,-99.99,,2013-01-13 10:53:00,
2013-01-13 06:12:00,32.0,-99.9,29.84,NNW,344,6.0,10.0,-999,-99.99,,,-99.99,,2013-01-13 11:12:00,
2013-01-13 06:53:00,32.0,-99.9,29.85,NNE,31,6.0,8.0,-999,-99.99,,,-99.99,,2013-01-13 11:53:00,
2013-01-13 07:03:00,32.0,-99.9,29.86,North,-999,-999.0,-999.0,-999,-99.99,,,-99.99,,2013-01-13 12:03:00,
2013-01-13 07:12:00,32.0,-99.9,29.87,North,-999,-999.0,-999.0,-999,-99.99,,,-99.99,,2013-01-13 12:12:00,
2013-01-13 07:22:00,32.0,-99.9,29.87,NNE,17,7.0,10.0,-999,-99.99,,,-99.99,,2013-01-13 12:22:00,
2013-01-13 07:33:00,32.0,-99.9,29.87,North,-999,-999.0,-999.0,-999,-99.99,,,-99.99,,2013-01-13 12:33:00,
2013-01-13 07:42:00,32.0,-99.9,29.88,North,-999,-999.0,-999.0,-999,-99.99,,,-99.99,,2013-01-13 12:42:00,
2013-01-13 07:53:00,-999.0,-99.9,29.89,NNE,13,9.0,11.0,-999,-99.99,,,-99.99,,2013-01-13 12:53:00,
2013-01-13 08:22:00,32.0,-99.9,29.88,NNE,18,11.0,13.0,-999,-99.99,,,-99.99,,2013-01-13 13:22:00,
2013-01-13 08:53:00,31.0,-99.9,29.88,NNE,19,13.0,15.0,-999,-99.99,,,-99.99,,2013-01-13 13:53:00,
2013-01-13 09:23:00,31.0,-99.9,29.88,North,4,10.0,14.0,-999,-99.99,,,-99.99,,2013-01-13 14:23:00,
2013-01-13 10:23:00,30.0,-99.9,29.90,North,349,6.0,9.0,-999,-99.99,,,-99.99,,2013-01-13 15:23:00,
2013-01-13 10:53:00,30.0,-99.9,29.90,North,3,5.0,7.0,-999,-99.99,,,-99.99,,2013-01-13 15:53:00,
2013-01-13 11:13:00,29.0,-99.9,29.91,NW,322,4.0,4.0,-999,-99.99,,,-99.99,,2013-01-13 16:13:00,
2013-01-13 11:53:00,30.0,-99.9,29.92,WNW,297,5.0,6.0,-999,-99.99,,,-99.99,,2013-01-13 16:53:00,
2013-01-13 12:22:00,30.0,-99.9,29.90,NW,319,4.0,5.0,-999,-99.99,,,-99.99,,2013-01-13 17:22:00,
2013-01-13 13:23:00,29.0,-99.9,29.88,NW,313,7.0,8.0,-999,-99.99,,,-99.99,,2013-01-13 18:23:00,
2013-01-13 13:53:00,29.0,-99.9,29.85,NNW,329,6.0,8.0,-999,-99.99,,,-99.99,,2013-01-13 18:53:00,
2013-01-13 14:53:00,29.0,-99.9,29.85,NW,322,5.0,7.0,-999,-99.99,,,-99.99,,2013-01-13 19:53:00,
2013-01-13 15:23:00,30.0,-99.9,29.86,NW,319,4.0,7.0,-999,-99.99,,,-99.99,,2013-01-13 20:23:00,
2013-01-13 15:53:00,30.0,-99.9,29.88,NW,307,6.0,8.0,-999,-99.99,,,-99.99,,2013-01-13 20:53:00,
2013-01-13 16:23:00,30.0,-99.9,29.91,NW,307,4.0,6.0,-999,-99.99,,,-99.99,,2013-01-13 21:23:00,
2013-01-13 16:53:00,30.0,-99.9,29.90,NW,311,6.0,8.0,-999,-99.99,,,-99.99,,2013-01-13 21:53:00,
2013-01-13 17:23:00,30.0,-99.9,29.89,NNW,336,6.0,7.0,-999,-99.99,,,-99.99,,2013-01-13 22:23:00,
2013-01-13 18:23:00,30.0,-99.9,29.87,NNW,328,7.0,10.0,-999,-99.99,,,-99.99,,2013-01-13 23:23:00,
2013-01-13 18:43:00,29.0,-99.9,29.85,NW,324,8.0,12.0,-999,-99.99,,,-99.99,,2013-01-13 23:43:00,
2013-01-13 19:23:00,29.0,-99.9,29.88,NW,306,4.0,5.0,-999,-99.99,,,-99.99,,2013-01-14 00:23:00,
2013-01-13 19:33:00,29.0,-99.9,29.88,NW,306,4.0,5.0,-999,-99.99,,,-99.99,,2013-01-14 00:33:00,
2013-01-13 19:43:00,29.0,-99.9,29.88,NW,306,4.0,5.0,-999,-99.99,,,-99.99,,2013-01-14 00:43:00,
2013-01-13 19:53:00,29.0,-99.9,29.88,NW,306,4.0,5.0,-999,-99.99,,,-99.99,,2013-01-14 00:53:00,